Terminal Aerodrome Forecast
Issued by NWS Wilmington, OH

Current Version | Previous Version | Graphics & Text | Print | Product List | Glossary On
Versions: 1 2 3 4 5 6 7 8 9 10 11 12 13 14 15 16 17 18 19 20 21 22 23 24 25 26 27 28 29 30
000
FTUS41 KILN 281100
TAFCVG
TAF
KCVG 281138Z 2812/2918 VRB03KT 1/4SM FG VV002
     FM281300 VRB03KT 2SM BR BKN005
     FM281330 VRB03KT 5SM BR SCT010
     FM281400 09005KT P6SM SCT020 BKN250
     FM281800 14006KT P6SM BKN040
     FM290100 17004KT P6SM SCT050
     FM290600 18005KT P6SM SCT050 SCT080 BKN120
     FM291600 19010KT P6SM BKN040=

USA.gov is the U.S. government's official web portal to all federal, state and local government web resources and services.